Fort Washington, Maryland
Current Conditions -  °F | °C
As of 9:52 AM on Friday 24 Oct 2014 (Local Time) from KDCA Reporting Station
Broken Clouds Broken Clouds  
Wind Chill: 59°   Ceiling: 25000
Heat Index: 59°   Visibility: 10mi
Dew Point: 42°   Wind: 13mph
Humidity: 53%   Direction: 310°NW
Pressure: 29.99"   Gusts: 22mph
Location:  38.74°N, 77°W
Report Text: KDCA 241352Z 31011G19KT 10SM FEW090 BKN250 15/06 A2999 RMK AO2 PK WND 31026/1318 SLP155 ACSL W T01500056
Loading
Personal Weather Stations






























Interactive Weather Map
Tropical Storm Tracking
New forecast layout! Learn more

10-Day Weather Forecast

Advertisements
Track Severe Weather on mobile